Time;durP1;ratioP1;P1;durP2;ratioP2;P2;SDS_P1;SDS_P2;PMS_P1;PMS_P2;Temp;Humidity;BMP_temperature;BMP_pressure;BME280_temperature;BME280_humidity;BME280_pressure;Samples;Min_cycle;Max_cycle;Signal;HPM_P1;HPM_P2
2022/03/10 00:01:54;;;;;;;39.92;21.23;;;;;;;;;;5000913;28;95824;-76
2022/03/10 00:04:21;;;;;;;38.45;20.40;;;;;;;;;;5010316;28;92446;-76
2022/03/10 00:06:47;;;;;;;41.17;22.58;;;;;;;;;;5015879;28;93400;-76
2022/03/10 00:09:13;;;;;;;44.97;22.38;;;;;;;;;;4995246;28;92370;-76
2022/03/10 00:11:40;;;;;;;40.53;20.92;;;;;;;;;;5012947;28;93171;-77
2022/03/10 00:14:10;;;;;;;40.30;21.77;;;;;;;;;;5003468;28;94116;-74
2022/03/10 00:16:37;;;;;;;35.72;20.98;;;;;;;;;;4992389;28;92767;-77
2022/03/10 00:19:03;;;;;;;52.22;23.10;;;;;;;;;;4994793;28;94274;-77
2022/03/10 00:21:30;;;;;;;41.50;22.23;;;;;;;;;;5012295;28;94480;-77
2022/03/10 00:23:56;;;;;;;39.20;20.73;;;;;;;;;;5003749;28;92493;-77
2022/03/10 00:26:22;;;;;;;53.42;23.80;;;;;;;;;;4995390;28;94862;-76
2022/03/10 00:28:48;;;;;;;45.33;24.08;;;;;;;;;;5005270;28;92893;-76
2022/03/10 00:31:15;;;;;;;39.45;22.08;;;;;;;;;;4995087;28;92862;-76
2022/03/10 00:33:41;;;;;;;44.25;22.63;;;;;;;;;;5007290;28;94351;-77
2022/03/10 00:36:07;;;;;;;42.22;20.95;;;;;;;;;;5011562;28;92429;-72
2022/03/10 00:38:34;;;;;;;40.03;21.75;;;;;;;;;;4999592;28;93945;-77
2022/03/10 00:41:00;;;;;;;46.47;23.52;;;;;;;;;;4992093;28;93365;-77
2022/03/10 00:43:26;;;;;;;41.83;22.05;;;;;;;;;;4993134;28;91634;-75
2022/03/10 00:45:52;;;;;;;46.22;22.48;;;;;;;;;;4992624;28;92667;-78
2022/03/10 00:48:19;;;;;;;47.80;22.73;;;;;;;;;;5004980;28;93579;-77
2022/03/10 00:50:45;;;;;;;49.30;23.33;;;;;;;;;;4990536;28;94867;-77
2022/03/10 00:53:11;;;;;;;43.17;23.42;;;;;;;;;;5006447;28;94097;-77
2022/03/10 00:55:38;;;;;;;46.20;24.08;;;;;;;;;;5010146;28;93050;-77
2022/03/10 00:58:06;;;;;;;40.97;22.92;;;;;;;;;;5002573;28;93172;-77
2022/03/10 01:00:32;;;;;;;45.10;24.10;;;;;;;;;;5005190;28;93483;-77
2022/03/10 01:02:59;;;;;;;42.42;22.25;;;;;;;;;;4999831;28;92728;-77
2022/03/10 01:05:25;;;;;;;56.17;23.83;;;;;;;;;;5008686;28;93241;-78
2022/03/10 01:07:51;;;;;;;48.03;24.20;;;;;;;;;;5012004;28;92565;-78
2022/03/10 01:10:18;;;;;;;45.85;25.30;;;;;;;;;;5006393;28;92526;-76
2022/03/10 01:12:45;;;;;;;44.67;23.88;;;;;;;;;;4994342;28;93453;-77
2022/03/10 01:15:13;;;;;;;50.58;24.48;;;;;;;;;;4997505;28;95108;-77
2022/03/10 01:17:40;;;;;;;42.33;23.33;;;;;;;;;;4992121;28;96627;-76
2022/03/10 01:20:06;;;;;;;48.10;23.88;;;;;;;;;;4993938;28;93795;-77
2022/03/10 01:22:34;;;;;;;39.65;23.00;;;;;;;;;;5006572;28;93476;-78
2022/03/10 01:25:00;;;;;;;49.50;23.20;;;;;;;;;;4990554;28;93415;-78
2022/03/10 01:27:26;;;;;;;44.35;23.63;;;;;;;;;;4992173;28;93336;-78
2022/03/10 01:29:53;;;;;;;44.25;23.38;;;;;;;;;;5014136;28;92401;-78
2022/03/10 01:32:19;;;;;;;45.15;24.13;;;;;;;;;;4999212;28;92210;-78
2022/03/10 01:34:45;;;;;;;46.42;24.90;;;;;;;;;;4995171;28;92960;-79
2022/03/10 01:37:11;;;;;;;47.35;25.27;;;;;;;;;;4994688;28;94090;-74
2022/03/10 01:39:38;;;;;;;42.90;24.13;;;;;;;;;;4996669;28;96866;-76
2022/03/10 01:42:06;;;;;;;48.35;25.38;;;;;;;;;;4997592;28;92810;-76
2022/03/10 01:44:34;;;;;;;44.40;26.27;;;;;;;;;;4995325;28;92891;-76
2022/03/10 01:47:01;;;;;;;48.35;26.27;;;;;;;;;;4999685;28;94463;-76
2022/03/10 01:49:28;;;;;;;43.25;24.20;;;;;;;;;;4996283;28;92483;-77
2022/03/10 01:51:54;;;;;;;49.22;24.88;;;;;;;;;;5009696;28;93009;-76
2022/03/10 01:54:21;;;;;;;47.95;26.08;;;;;;;;;;5018207;28;94127;-78
2022/03/10 01:56:47;;;;;;;42.35;22.70;;;;;;;;;;5006099;28;93289;-76
2022/03/10 01:59:14;;;;;;;47.67;24.25;;;;;;;;;;4984072;28;94282;-77
2022/03/10 02:01:40;;;;;;;46.25;25.42;;;;;;;;;;4997110;28;92582;-69
2022/03/10 02:04:07;;;;;;;45.65;24.70;;;;;;;;;;5011188;28;94858;-77
2022/03/10 02:06:34;;;;;;;45.63;23.75;;;;;;;;;;5014525;28;94425;-78
2022/03/10 02:11:45;;;;;;;48.80;24.30;;;;;;;;;;5011519;28;93647;-78
2022/03/10 02:19:43;;;;;;;52.72;25.42;;;;;;;;;;4994150;28;94631;-78
2022/03/10 02:22:10;;;;;;;53.15;26.15;;;;;;;;;;5000815;28;91887;-76
2022/03/10 02:24:37;;;;;;;48.35;25.08;;;;;;;;;;5014685;28;93361;-78
2022/03/10 02:27:18;;;;;;;45.70;25.23;;;;;;;;;;4999975;28;93495;-76
2022/03/10 02:29:44;;;;;;;46.55;24.98;;;;;;;;;;4996037;28;94854;-78
2022/03/10 02:32:11;;;;;;;52.30;25.70;;;;;;;;;;5012666;28;96670;-77
2022/03/10 02:34:38;;;;;;;50.47;24.15;;;;;;;;;;5014540;28;94416;-77
2022/03/10 02:37:04;;;;;;;45.53;24.70;;;;;;;;;;5013163;28;92530;-78
2022/03/10 02:39:31;;;;;;;45.20;25.90;;;;;;;;;;5012123;28;93433;-78
2022/03/10 02:41:57;;;;;;;53.53;26.17;;;;;;;;;;5009153;28;92628;-75
2022/03/10 02:44:24;;;;;;;49.60;26.27;;;;;;;;;;4994649;28;92674;-77
2022/03/10 02:46:51;;;;;;;49.28;26.27;;;;;;;;;;4994578;28;93303;-78
2022/03/10 02:49:17;;;;;;;47.85;26.15;;;;;;;;;;5011052;28;93894;-77
2022/03/10 02:51:44;;;;;;;48.63;25.10;;;;;;;;;;5012380;28;94308;-77
2022/03/10 02:54:10;;;;;;;46.13;26.38;;;;;;;;;;4992606;28;95620;-74
2022/03/10 02:56:37;;;;;;;45.05;25.10;;;;;;;;;;4994277;28;92681;-76
2022/03/10 02:59:03;;;;;;;51.45;25.70;;;;;;;;;;5009640;28;93230;-77
2022/03/10 03:01:30;;;;;;;48.63;25.98;;;;;;;;;;5013870;28;92476;-77
2022/03/10 03:03:56;;;;;;;42.97;23.98;;;;;;;;;;4998974;28;94237;-77
2022/03/10 03:06:23;;;;;;;47.15;26.08;;;;;;;;;;5013261;28;93266;-77
2022/03/10 03:08:49;;;;;;;43.47;24.05;;;;;;;;;;5014126;28;92424;-77
2022/03/10 03:11:15;;;;;;;44.53;23.80;;;;;;;;;;5013993;28;94062;-76
2022/03/10 03:13:42;;;;;;;40.95;23.58;;;;;;;;;;5014004;28;94445;-77
2022/03/10 03:16:08;;;;;;;44.72;23.45;;;;;;;;;;5003912;28;94076;-78
2022/03/10 03:18:35;;;;;;;49.45;23.02;;;;;;;;;;4992083;28;94784;-78
2022/03/10 03:21:01;;;;;;;49.50;25.63;;;;;;;;;;4996554;28;93350;-78
2022/03/10 03:23:28;;;;;;;44.17;24.05;;;;;;;;;;4994660;28;93224;-77
2022/03/10 03:25:54;;;;;;;45.00;25.08;;;;;;;;;;4993352;28;93141;-76
2022/03/10 03:28:21;;;;;;;47.85;25.25;;;;;;;;;;4993779;28;92697;-77
2022/03/10 03:30:48;;;;;;;60.17;25.05;;;;;;;;;;4995884;28;94464;-78
2022/03/10 03:33:14;;;;;;;45.53;24.65;;;;;;;;;;5000049;28;93738;-77
2022/03/10 03:35:44;;;;;;;46.13;23.98;;;;;;;;;;5013493;28;91734;-76
2022/03/10 03:38:11;;;;;;;50.60;25.08;;;;;;;;;;5006323;28;93334;-78
2022/03/10 03:40:38;;;;;;;45.08;23.10;;;;;;;;;;5003670;28;93251;-77
2022/03/10 03:43:05;;;;;;;45.05;24.20;;;;;;;;;;5001022;28;94926;-77
2022/03/10 03:45:31;;;;;;;46.00;24.40;;;;;;;;;;4993034;28;93182;-77
2022/03/10 03:47:58;;;;;;;42.85;23.40;;;;;;;;;;4993527;28;92597;-78
2022/03/10 03:50:24;;;;;;;42.10;23.45;;;;;;;;;;4999054;28;93021;-76
2022/03/10 03:52:50;;;;;;;45.08;24.02;;;;;;;;;;4997367;28;93035;-77
2022/03/10 03:55:17;;;;;;;46.35;25.70;;;;;;;;;;4993220;28;92455;-78
2022/03/10 03:57:43;;;;;;;49.65;25.65;;;;;;;;;;4994525;28;94087;-77
2022/03/10 04:00:11;;;;;;;43.92;24.70;;;;;;;;;;4987759;28;92816;-77
2022/03/10 04:02:37;;;;;;;49.97;25.92;;;;;;;;;;4998244;28;92522;-78
2022/03/10 04:05:05;;;;;;;50.35;25.67;;;;;;;;;;5003334;28;93102;-76
2022/03/10 04:07:32;;;;;;;43.72;24.05;;;;;;;;;;4990957;28;95532;-77
2022/03/10 04:09:58;;;;;;;47.85;25.98;;;;;;;;;;4992124;28;95496;-77
2022/03/10 04:12:24;;;;;;;47.05;25.73;;;;;;;;;;4997758;28;94198;-75
2022/03/10 04:14:50;;;;;;;45.55;24.30;;;;;;;;;;4996612;28;92454;-78
2022/03/10 04:17:17;;;;;;;50.17;24.45;;;;;;;;;;4994882;28;93153;-75
2022/03/10 04:19:43;;;;;;;45.60;24.50;;;;;;;;;;4993120;28;93527;-77
2022/03/10 04:22:09;;;;;;;46.85;24.85;;;;;;;;;;4993261;28;92905;-74
2022/03/10 04:24:36;;;;;;;45.25;24.95;;;;;;;;;;4996186;28;93239;-75
2022/03/10 04:27:02;;;;;;;49.83;24.48;;;;;;;;;;4993582;28;95191;-76
2022/03/10 04:29:28;;;;;;;48.65;24.75;;;;;;;;;;4985438;28;93270;-77
2022/03/10 04:31:55;;;;;;;45.58;23.60;;;;;;;;;;4996342;28;96619;-76
2022/03/10 04:34:21;;;;;;;43.50;23.40;;;;;;;;;;4989662;28;92485;-78
2022/03/10 04:36:47;;;;;;;48.30;24.02;;;;;;;;;;4992408;28;94102;-76
2022/03/10 04:39:13;;;;;;;39.05;23.05;;;;;;;;;;4992036;28;93305;-77
2022/03/10 04:41:40;;;;;;;41.38;23.05;;;;;;;;;;4995717;28;92534;-70
2022/03/10 04:44:06;;;;;;;44.70;23.60;;;;;;;;;;5010275;28;94726;-76
2022/03/10 04:46:32;;;;;;;53.03;24.92;;;;;;;;;;4996571;28;93495;-77
2022/03/10 04:48:59;;;;;;;45.85;23.92;;;;;;;;;;4991543;28;94678;-77
2022/03/10 04:51:25;;;;;;;43.75;23.30;;;;;;;;;;4995165;28;93611;-76
2022/03/10 04:53:51;;;;;;;43.65;23.88;;;;;;;;;;5009237;28;92416;-77
2022/03/10 04:56:17;;;;;;;52.83;23.30;;;;;;;;;;4993681;28;94911;-75
2022/03/10 04:58:44;;;;;;;48.38;24.40;;;;;;;;;;4990363;28;93327;-78
2022/03/10 05:01:10;;;;;;;49.88;23.73;;;;;;;;;;4993449;28;92507;-76
2022/03/10 05:03:37;;;;;;;41.30;21.80;;;;;;;;;;4997384;28;93281;-77
2022/03/10 05:06:03;;;;;;;37.67;21.75;;;;;;;;;;4990975;28;93385;-77
2022/03/10 05:08:30;;;;;;;40.40;21.75;;;;;;;;;;5007196;28;92622;-77
2022/03/10 05:10:57;;;;;;;41.58;23.25;;;;;;;;;;5009875;28;93286;-76
2022/03/10 05:13:24;;;;;;;33.85;20.30;;;;;;;;;;5010674;28;92422;-77
2022/03/10 05:15:50;;;;;;;45.42;21.52;;;;;;;;;;5000872;28;93332;-77
2022/03/10 05:18:17;;;;;;;39.78;22.15;;;;;;;;;;4995620;28;93422;-76
2022/03/10 05:20:45;;;;;;;40.92;22.75;;;;;;;;;;4994655;28;96192;-77
2022/03/10 05:23:12;;;;;;;48.03;22.23;;;;;;;;;;5007273;28;95429;-76
2022/03/10 05:25:39;;;;;;;42.63;23.13;;;;;;;;;;5008947;28;94466;-77
2022/03/10 05:28:14;;;;;;;49.55;22.73;;;;;;;;;;4991622;28;92762;-77
2022/03/10 05:30:43;;;;;;;40.80;23.30;;;;;;;;;;4994728;28;93414;-70
2022/03/10 05:33:10;;;;;;;59.03;21.80;;;;;;;;;;4995308;28;93180;-74
2022/03/10 05:35:38;;;;;;;46.25;22.77;;;;;;;;;;4991936;28;93256;-77
2022/03/10 05:38:05;;;;;;;46.55;24.40;;;;;;;;;;4993705;28;92548;-75
2022/03/10 05:40:31;;;;;;;44.03;24.25;;;;;;;;;;5004638;28;92417;-77
2022/03/10 05:42:57;;;;;;;43.78;23.58;;;;;;;;;;4991190;28;94131;-77
2022/03/10 05:45:24;;;;;;;44.47;22.95;;;;;;;;;;4993825;28;95960;-76
2022/03/10 05:47:52;;;;;;;44.90;22.88;;;;;;;;;;4992981;28;92434;-75
2022/03/10 05:50:19;;;;;;;45.53;23.48;;;;;;;;;;4999624;28;94614;-76
2022/03/10 05:52:45;;;;;;;47.90;23.33;;;;;;;;;;4994284;28;93496;-74
2022/03/10 05:55:12;;;;;;;48.70;23.73;;;;;;;;;;4994068;28;94303;-76
2022/03/10 05:57:39;;;;;;;46.17;23.52;;;;;;;;;;5008583;28;93428;-76
2022/03/10 06:00:05;;;;;;;42.15;21.92;;;;;;;;;;4993937;28;92559;-74
2022/03/10 06:02:32;;;;;;;45.50;23.05;;;;;;;;;;4998393;28;94112;-81
2022/03/10 06:04:59;;;;;;;42.22;21.45;;;;;;;;;;4989535;28;93494;-79
2022/03/10 06:07:26;;;;;;;47.28;23.35;;;;;;;;;;4994188;28;92655;-80
2022/03/10 06:09:54;;;;;;;38.75;22.98;;;;;;;;;;4990672;28;94946;-78
2022/03/10 06:12:23;;;;;;;42.70;22.92;;;;;;;;;;5006611;28;94487;-78
2022/03/10 06:14:53;;;;;;;44.10;21.88;;;;;;;;;;4995485;28;92476;-78
2022/03/10 06:17:20;;;;;;;53.93;21.77;;;;;;;;;;4998965;28;94253;-79
2022/03/10 06:19:48;;;;;;;45.00;20.40;;;;;;;;;;5013841;28;92459;-75
2022/03/10 06:22:21;;;;;;;44.42;20.45;;;;;;;;;;5014050;28;92697;-77
2022/03/10 06:24:47;;;;;;;45.00;22.15;;;;;;;;;;5014420;28;93590;-78
2022/03/10 06:27:14;;;;;;;39.35;20.58;;;;;;;;;;4996226;28;92194;-76
2022/03/10 06:29:41;;;;;;;41.30;20.52;;;;;;;;;;4974517;28;94112;-78
2022/03/10 06:32:09;;;;;;;47.05;22.08;;;;;;;;;;4990024;28;93786;-78
2022/03/10 06:34:37;;;;;;;43.97;22.90;;;;;;;;;;4994634;28;95201;-76
2022/03/10 06:37:04;;;;;;;40.63;20.77;;;;;;;;;;4999769;28;93548;-77
2022/03/10 06:39:31;;;;;;;42.75;21.85;;;;;;;;;;5013753;28;92851;-75
2022/03/10 06:41:57;;;;;;;44.55;22.52;;;;;;;;;;5012433;28;93157;-76
2022/03/10 06:44:25;;;;;;;55.55;23.50;;;;;;;;;;5014172;28;93480;-77
2022/03/10 06:46:52;;;;;;;58.58;22.58;;;;;;;;;;5006485;28;92692;-77
2022/03/10 06:49:18;;;;;;;38.03;20.60;;;;;;;;;;4994429;28;94308;-77
2022/03/10 06:51:44;;;;;;;49.25;21.65;;;;;;;;;;4994297;28;92649;-79
2022/03/10 06:54:10;;;;;;;40.10;19.05;;;;;;;;;;5006546;28;92657;-78
2022/03/10 06:56:38;;;;;;;40.90;20.90;;;;;;;;;;4997384;28;94071;-80
2022/03/10 06:59:05;;;;;;;47.72;20.33;;;;;;;;;;4992362;28;94844;-78
2022/03/10 07:01:31;;;;;;;36.13;20.58;;;;;;;;;;4988223;28;95663;-78
2022/03/10 07:03:59;;;;;;;58.08;26.80;;;;;;;;;;4980834;28;93732;-78
2022/03/10 07:06:25;;;;;;;52.10;24.30;;;;;;;;;;4999681;28;92525;-77
2022/03/10 07:08:52;;;;;;;46.25;22.20;;;;;;;;;;5013594;28;93332;-75
2022/03/10 07:11:18;;;;;;;39.05;21.13;;;;;;;;;;4993482;28;94475;-75
2022/03/10 07:13:45;;;;;;;47.13;20.77;;;;;;;;;;4994477;28;93223;-75
2022/03/10 07:16:12;;;;;;;36.00;20.40;;;;;;;;;;4994896;28;93409;-77
2022/03/10 07:18:39;;;;;;;38.78;20.70;;;;;;;;;;4998338;28;94416;-77
2022/03/10 07:21:05;;;;;;;41.35;20.88;;;;;;;;;;5007342;28;94315;-77
2022/03/10 07:23:32;;;;;;;37.35;20.80;;;;;;;;;;5011008;28;95851;-76
2022/03/10 07:25:59;;;;;;;38.20;20.30;;;;;;;;;;4994499;28;92857;-77
2022/03/10 07:28:26;;;;;;;43.90;22.60;;;;;;;;;;4993941;28;93290;-77
2022/03/10 07:30:54;;;;;;;38.45;19.23;;;;;;;;;;4997935;28;94480;-76
2022/03/10 07:33:21;;;;;;;47.38;18.88;;;;;;;;;;4995329;28;92550;-77
2022/03/10 07:35:48;;;;;;;45.53;19.60;;;;;;;;;;4995300;28;93199;-76
2022/03/10 07:38:14;;;;;;;37.50;20.10;;;;;;;;;;5012929;28;93476;-78
2022/03/10 07:40:40;;;;;;;41.97;20.02;;;;;;;;;;5016058;28;91811;-74
2022/03/10 07:43:06;;;;;;;33.95;18.38;;;;;;;;;;5013258;28;93358;-77
2022/03/10 07:45:33;;;;;;;34.72;17.70;;;;;;;;;;5009950;28;92528;-77
2022/03/10 07:47:59;;;;;;;35.80;19.20;;;;;;;;;;5007884;28;95189;-77
2022/03/10 07:50:26;;;;;;;42.05;20.50;;;;;;;;;;5011247;28;93501;-77
2022/03/10 07:52:52;;;;;;;36.22;19.23;;;;;;;;;;4992851;28;92637;-77
2022/03/10 07:55:18;;;;;;;33.15;18.80;;;;;;;;;;4993320;28;93528;-76
2022/03/10 07:57:44;;;;;;;33.28;17.13;;;;;;;;;;5004006;28;93430;-78
2022/03/10 08:00:11;;;;;;;29.10;17.13;;;;;;;;;;5009044;28;92525;-76
2022/03/10 08:02:37;;;;;;;39.40;18.52;;;;;;;;;;5016378;28;94161;-78
2022/03/10 08:05:06;;;;;;;35.95;18.25;;;;;;;;;;5013249;28;92082;-76
2022/03/10 08:07:33;;;;;;;32.22;18.33;;;;;;;;;;5012164;28;92491;-75
2022/03/10 08:10:04;;;;;;;42.58;20.98;;;;;;;;;;4994219;28;93480;-75
2022/03/10 08:12:31;;;;;;;38.25;20.48;;;;;;;;;;5010152;28;95938;-75
2022/03/10 08:14:57;;;;;;;46.15;18.58;;;;;;;;;;5011942;28;95571;-75
2022/03/10 08:17:25;;;;;;;34.60;19.02;;;;;;;;;;4992581;28;93213;-76
2022/03/10 08:19:52;;;;;;;46.78;20.75;;;;;;;;;;4992763;28;92896;-76
2022/03/10 08:22:19;;;;;;;37.72;19.27;;;;;;;;;;4992652;28;92533;-76
2022/03/10 08:24:45;;;;;;;38.55;20.65;;;;;;;;;;4995588;28;93468;-76
2022/03/10 08:27:14;;;;;;;38.63;19.67;;;;;;;;;;4992387;28;93702;-76
2022/03/10 08:29:41;;;;;;;33.55;19.77;;;;;;;;;;4990903;28;92668;-76
2022/03/10 08:32:10;;;;;;;34.67;17.92;;;;;;;;;;4974741;28;92781;-77
2022/03/10 08:34:37;;;;;;;44.70;17.90;;;;;;;;;;4973215;28;93155;-76
2022/03/10 08:37:03;;;;;;;34.60;18.45;;;;;;;;;;4994131;28;95969;-76
2022/03/10 08:39:29;;;;;;;35.25;18.17;;;;;;;;;;5009856;28;92416;-76
2022/03/10 08:41:56;;;;;;;39.45;19.42;;;;;;;;;;5010438;28;94240;-76
2022/03/10 08:44:22;;;;;;;37.10;18.17;;;;;;;;;;4996919;28;93424;-77
2022/03/10 08:46:49;;;;;;;40.35;19.40;;;;;;;;;;4984258;28;93251;-76
2022/03/10 08:49:17;;;;;;;38.72;19.40;;;;;;;;;;4985414;28;93760;-76
2022/03/10 08:51:44;;;;;;;37.58;18.58;;;;;;;;;;4992038;28;92403;-75
2022/03/10 08:54:12;;;;;;;42.88;19.00;;;;;;;;;;4992807;28;92998;-75
2022/03/10 08:56:38;;;;;;;34.08;19.13;;;;;;;;;;4997162;28;94369;-76
2022/03/10 08:59:05;;;;;;;44.63;19.50;;;;;;;;;;4991561;28;92567;-76
2022/03/10 09:01:31;;;;;;;41.42;19.60;;;;;;;;;;5004406;28;94893;-75
2022/03/10 09:03:58;;;;;;;39.03;19.20;;;;;;;;;;5012110;28;93389;-75
2022/03/10 09:06:24;;;;;;;38.35;18.88;;;;;;;;;;5013831;28;92491;-74
2022/03/10 09:08:51;;;;;;;34.33;18.77;;;;;;;;;;5002366;28;93213;-74
2022/03/10 09:11:17;;;;;;;44.90;19.92;;;;;;;;;;4994555;28;92723;-75
2022/03/10 09:13:48;;;;;;;38.97;20.13;;;;;;;;;;5010449;28;93423;-76
2022/03/10 09:16:15;;;;;;;35.47;19.90;;;;;;;;;;5001139;28;94623;-76
2022/03/10 09:18:43;;;;;;;34.90;18.25;;;;;;;;;;4992177;28;91758;-75
2022/03/10 09:21:09;;;;;;;36.63;20.25;;;;;;;;;;4991999;28;93060;-75
2022/03/10 09:23:36;;;;;;;41.10;19.48;;;;;;;;;;4991629;28;93446;-74
2022/03/10 09:26:02;;;;;;;37.22;20.67;;;;;;;;;;5005165;28;94805;-75
2022/03/10 09:28:29;;;;;;;45.25;21.17;;;;;;;;;;5003046;28;96476;-75
2022/03/10 09:30:55;;;;;;;37.20;19.75;;;;;;;;;;5008927;28;93025;-76
2022/03/10 09:33:21;;;;;;;37.42;19.40;;;;;;;;;;5012057;28;94461;-77
2022/03/10 09:35:48;;;;;;;37.47;20.15;;;;;;;;;;5010361;28;93498;-76
2022/03/10 09:38:17;;;;;;;40.15;20.08;;;;;;;;;;5007084;28;93006;-72
2022/03/10 09:40:46;;;;;;;43.60;20.92;;;;;;;;;;4991619;28;93092;-76
2022/03/10 09:43:12;;;;;;;38.58;20.80;;;;;;;;;;4992422;28;93707;-77
2022/03/10 09:45:39;;;;;;;37.67;22.65;;;;;;;;;;4992153;28;92395;-73
2022/03/10 09:48:05;;;;;;;36.90;22.63;;;;;;;;;;4992029;28;94353;-74
2022/03/10 09:50:31;;;;;;;39.13;22.42;;;;;;;;;;4998402;28;94915;-73
2022/03/10 09:52:58;;;;;;;45.92;21.67;;;;;;;;;;4998235;28;95577;-76
2022/03/10 09:55:24;;;;;;;35.45;21.60;;;;;;;;;;4995265;28;93107;-75
2022/03/10 09:57:50;;;;;;;38.38;21.55;;;;;;;;;;4995976;28;92454;-75
2022/03/10 10:00:17;;;;;;;33.25;20.25;;;;;;;;;;4995835;28;94098;-78
2022/03/10 10:02:44;;;;;;;32.55;20.35;;;;;;;;;;4994069;28;94558;-74
2022/03/10 10:05:20;;;;;;;26.55;19.77;;;;;;;;;;5002138;28;92737;-72
2022/03/10 10:07:59;;;;;;;27.92;19.17;;;;;;;;;;4994826;28;95861;-73
2022/03/10 10:10:26;;;;;;;28.83;19.93;;;;;;;;;;4994969;28;93873;-74
2022/03/10 10:13:05;;;;;;;30.60;20.65;;;;;;;;;;4997254;28;92635;-74
2022/03/10 10:15:40;;;;;;;26.52;18.67;;;;;;;;;;5001728;28;97029;-74
2022/03/10 10:18:13;;;;;;;28.13;18.88;;;;;;;;;;4977568;28;92674;-74
2022/03/10 10:20:59;;;;;;;27.05;18.35;;;;;;;;;;4994026;28;95863;-75
2022/03/10 10:23:29;;;;;;;31.17;18.35;;;;;;;;;;4994547;28;92612;-74
2022/03/10 10:25:56;;;;;;;27.48;18.13;;;;;;;;;;4993665;28;92787;-74
2022/03/10 10:28:28;;;;;;;23.25;18.20;;;;;;;;;;4999913;28;93615;-74
2022/03/10 10:30:57;;;;;;;27.58;19.33;;;;;;;;;;5013753;28;94938;-74
2022/03/10 10:33:24;;;;;;;26.40;18.10;;;;;;;;;;5010593;28;92278;-74
2022/03/10 10:35:51;;;;;;;23.80;17.33;;;;;;;;;;5005884;28;94746;-74
2022/03/10 10:38:28;;;;;;;25.05;18.20;;;;;;;;;;5011299;28;93100;-74
2022/03/10 10:41:13;;;;;;;43.08;18.23;;;;;;;;;;5011801;28;96148;-73
2022/03/10 10:43:41;;;;;;;26.88;18.80;;;;;;;;;;5013618;28;93997;-74
2022/03/10 10:46:07;;;;;;;21.10;16.67;;;;;;;;;;5001511;28;93263;-73
2022/03/10 10:48:44;;;;;;;19.17;15.95;;;;;;;;;;4983889;28;95174;-74
2022/03/10 10:51:10;;;;;;;21.85;17.80;;;;;;;;;;4993436;28;95244;-74
2022/03/10 10:53:39;;;;;;;30.08;17.17;;;;;;;;;;4994448;28;93477;-74
2022/03/10 10:56:06;;;;;;;23.10;17.23;;;;;;;;;;5000331;28;94962;-73
2022/03/10 10:58:33;;;;;;;21.83;15.73;;;;;;;;;;5012831;28;92563;-74
2022/03/10 11:00:59;;;;;;;26.70;17.67;;;;;;;;;;5010342;28;93197;-73
2022/03/10 11:03:26;;;;;;;25.70;16.80;;;;;;;;;;5003079;28;93458;-73
2022/03/10 11:05:54;;;;;;;23.73;16.98;;;;;;;;;;4990988;28;96371;-74
2022/03/10 11:08:21;;;;;;;18.85;16.00;;;;;;;;;;5010320;28;96734;-73
2022/03/10 11:10:48;;;;;;;23.30;16.92;;;;;;;;;;5012965;28;94247;-74
2022/03/10 11:13:20;;;;;;;25.30;16.05;;;;;;;;;;5010575;28;93992;-74
2022/03/10 11:15:46;;;;;;;18.90;15.07;;;;;;;;;;4993378;28;95634;-74
2022/03/10 11:18:13;;;;;;;18.75;15.70;;;;;;;;;;4995086;28;95633;-73
2022/03/10 11:20:42;;;;;;;23.17;15.73;;;;;;;;;;4992496;28;94361;-73
2022/03/10 11:23:14;;;;;;;22.40;15.40;;;;;;;;;;4992662;28;93850;-74
2022/03/10 11:25:53;;;;;;;17.17;14.93;;;;;;;;;;5007921;28;93936;-73
2022/03/10 11:28:21;;;;;;;28.30;16.95;;;;;;;;;;4991946;28;94435;-74
2022/03/10 11:30:49;;;;;;;26.88;16.38;;;;;;;;;;4997612;28;96413;-74
2022/03/10 11:33:18;;;;;;;25.50;15.93;;;;;;;;;;5006029;28;93830;-74
2022/03/10 11:35:51;;;;;;;23.13;15.73;;;;;;;;;;4991864;28;94381;-74
2022/03/10 11:38:18;;;;;;;28.98;17.38;;;;;;;;;;4991736;28;94764;-75
2022/03/10 11:40:50;;;;;;;25.02;17.05;;;;;;;;;;5002774;28;94866;-75
2022/03/10 11:43:20;;;;;;;22.52;17.20;;;;;;;;;;5012129;28;94674;-76
2022/03/10 11:45:47;;;;;;;24.90;18.30;;;;;;;;;;5010404;28;93524;-75
2022/03/10 11:48:22;;;;;;;24.77;17.65;;;;;;;;;;5005665;28;94676;-75
2022/03/10 11:50:49;;;;;;;23.15;18.45;;;;;;;;;;4992012;28;95079;-75
2022/03/10 11:53:15;;;;;;;26.38;18.00;;;;;;;;;;4991817;28;93311;-75
2022/03/10 11:55:43;;;;;;;25.75;18.40;;;;;;;;;;4991058;28;95693;-75
2022/03/10 11:58:13;;;;;;;24.75;18.25;;;;;;;;;;5001438;28;93727;-74
2022/03/10 12:00:39;;;;;;;29.25;17.77;;;;;;;;;;5001114;28;93590;-74
2022/03/10 12:03:06;;;;;;;25.38;18.15;;;;;;;;;;5014869;28;94203;-74
2022/03/10 12:05:59;;;;;;;25.00;18.25;;;;;;;;;;4992755;28;92866;-74
2022/03/10 12:08:26;;;;;;;33.58;18.75;;;;;;;;;;5003178;28;94610;-74
2022/03/10 12:10:53;;;;;;;26.65;18.30;;;;;;;;;;5012427;28;94604;-73
2022/03/10 12:13:26;;;;;;;21.67;17.55;;;;;;;;;;5011709;28;92343;-74
2022/03/10 12:15:53;;;;;;;22.40;17.92;;;;;;;;;;5005513;28;93567;-72
2022/03/10 12:18:24;;;;;;;24.45;17.75;;;;;;;;;;5002456;28;93875;-73
2022/03/10 12:20:53;;;;;;;26.10;18.98;;;;;;;;;;4998429;28;95007;-73
2022/03/10 12:23:22;;;;;;;35.30;18.88;;;;;;;;;;4993003;28;96880;-74
2022/03/10 12:25:49;;;;;;;28.27;17.98;;;;;;;;;;4996762;28;94568;-74
2022/03/10 12:28:22;;;;;;;23.95;18.95;;;;;;;;;;5000356;28;93751;-74
2022/03/10 12:30:48;;;;;;;26.50;18.65;;;;;;;;;;4981745;28;94508;-74
2022/03/10 12:33:15;;;;;;;21.88;17.05;;;;;;;;;;4990333;28;92818;-73
2022/03/10 12:35:41;;;;;;;30.17;17.98;;;;;;;;;;4991131;28;93572;-74
2022/03/10 12:38:08;;;;;;;24.35;17.70;;;;;;;;;;4973516;28;91793;-74
2022/03/10 12:40:35;;;;;;;19.17;16.00;;;;;;;;;;4995784;28;92889;-73
2022/03/10 12:43:03;;;;;;;18.98;15.52;;;;;;;;;;5009849;28;93143;-74
2022/03/10 12:45:30;;;;;;;22.35;16.23;;;;;;;;;;5005133;28;96038;-74
2022/03/10 12:48:11;;;;;;;24.10;16.00;;;;;;;;;;5014252;28;92442;-75
2022/03/10 12:50:37;;;;;;;27.50;16.45;;;;;;;;;;4994160;28;93678;-74
2022/03/10 12:53:10;;;;;;;20.55;16.17;;;;;;;;;;4991811;28;92530;-74
2022/03/10 12:55:37;;;;;;;25.88;15.63;;;;;;;;;;4993140;28;93350;-74
2022/03/10 12:58:03;;;;;;;23.42;16.75;;;;;;;;;;4993616;28;93224;-74
2022/03/10 13:00:30;;;;;;;23.77;15.05;;;;;;;;;;5011240;28;93360;-74
2022/03/10 13:02:59;;;;;;;23.42;16.45;;;;;;;;;;5012382;28;94268;-73
2022/03/10 13:05:29;;;;;;;28.63;16.95;;;;;;;;;;5010051;28;92706;-74
2022/03/10 13:08:09;;;;;;;23.08;15.90;;;;;;;;;;5013196;28;92462;-74
2022/03/10 13:10:35;;;;;;;23.40;16.20;;;;;;;;;;4999136;28;95738;-74
2022/03/10 13:13:02;;;;;;;25.17;16.63;;;;;;;;;;4997221;28;92482;-75
2022/03/10 13:15:29;;;;;;;29.33;16.70;;;;;;;;;;5008183;28;93225;-75
2022/03/10 13:18:02;;;;;;;31.23;16.40;;;;;;;;;;4991387;28;92465;-75
2022/03/10 13:20:31;;;;;;;29.95;17.80;;;;;;;;;;4996138;28;92551;-74
2022/03/10 13:22:58;;;;;;;23.48;17.00;;;;;;;;;;4991298;28;92794;-75
2022/03/10 13:25:25;;;;;;;23.98;16.58;;;;;;;;;;4992309;28;93457;-74
2022/03/10 13:27:58;;;;;;;23.52;16.60;;;;;;;;;;4980540;28;91957;-74
2022/03/10 13:30:25;;;;;;;27.52;17.33;;;;;;;;;;4982984;28;93109;-74
2022/03/10 13:32:52;;;;;;;22.85;16.15;;;;;;;;;;4983578;28;92622;-74
2022/03/10 13:35:23;;;;;;;25.23;18.10;;;;;;;;;;4989900;28;95155;-74
2022/03/10 13:37:50;;;;;;;27.13;16.85;;;;;;;;;;5003039;28;92664;-74
2022/03/10 13:40:17;;;;;;;27.45;17.77;;;;;;;;;;4995457;28;92447;-74
2022/03/10 13:42:48;;;;;;;23.45;16.02;;;;;;;;;;5009881;28;93047;-75
2022/03/10 13:45:15;;;;;;;27.10;16.30;;;;;;;;;;5001872;28;93931;-76
2022/03/10 13:48:01;;;;;;;24.35;16.85;;;;;;;;;;4993104;28;92672;-75
2022/03/10 13:50:33;;;;;;;25.45;17.85;;;;;;;;;;5003494;28;94277;-74
2022/03/10 13:53:01;;;;;;;26.60;17.70;;;;;;;;;;4994842;28;93683;-75
2022/03/10 13:55:29;;;;;;;29.80;18.75;;;;;;;;;;4998832;28;92646;-74
2022/03/10 13:57:57;;;;;;;26.27;17.75;;;;;;;;;;4994167;28;93530;-75
2022/03/10 14:00:26;;;;;;;26.63;18.45;;;;;;;;;;4989002;28;94961;-74
2022/03/10 14:02:53;;;;;;;29.13;17.57;;;;;;;;;;4989664;28;95878;-75
2022/03/10 14:05:23;;;;;;;31.98;19.02;;;;;;;;;;4989868;28;94501;-75
2022/03/10 14:07:49;;;;;;;28.42;17.60;;;;;;;;;;4991425;28;92722;-75
2022/03/10 14:10:26;;;;;;;36.75;18.10;;;;;;;;;;4990558;28;92440;-75
2022/03/10 14:12:58;;;;;;;28.73;16.85;;;;;;;;;;5008434;28;94465;-76
2022/03/10 14:15:32;;;;;;;28.65;18.38;;;;;;;;;;4997982;28;92476;-76
2022/03/10 14:17:59;;;;;;;31.45;18.33;;;;;;;;;;4992410;28;93504;-76
2022/03/10 14:20:38;;;;;;;26.27;17.83;;;;;;;;;;4991126;28;92642;-75
2022/03/10 14:23:05;;;;;;;29.00;18.23;;;;;;;;;;4990735;28;93501;-74
2022/03/10 14:26:01;;;;;;;31.45;17.38;;;;;;;;;;4993215;28;96643;-76
2022/03/10 14:28:34;;;;;;;35.17;17.70;;;;;;;;;;4974163;28;92528;-75